Time;durP1;ratioP1;P1;durP2;ratioP2;P2;SDS_P1;SDS_P2;PMS_P1;PMS_P2;Temp;Humidity;BMP_temperature;BMP_pressure;BME280_temperature;BME280_humidity;BME280_pressure;Samples;Min_cycle;Max_cycle;Signal;HPM_P1;HPM_P2
2022/05/29 00:01:57;;;;;;;3.92;1.10;;;10.30;99.90;;;;;;5055851;28;20441;-61
2022/05/29 00:04:23;;;;;;;4.88;0.88;;;10.10;99.90;;;;;;5051869;28;20029;-60
2022/05/29 00:06:53;;;;;;;4.78;1.17;;;10.00;99.90;;;;;;5062299;28;20033;-60
2022/05/29 00:09:31;;;;;;;6.53;1.55;;;10.10;99.90;;;;;;5067728;28;20077;-59
2022/05/29 00:11:58;;;;;;;7.13;1.25;;;10.00;99.90;;;;;;5059246;28;20403;-60
2022/05/29 00:14:23;;;;;;;9.18;2.65;;;10.00;99.90;;;;;;5062848;28;20024;-61
2022/05/29 00:16:49;;;;;;;3.53;0.90;;;9.90;99.90;;;;;;5055356;28;20082;-61
2022/05/29 00:19:14;;;;;;;2.70;1.00;;;9.90;99.90;;;;;;5054594;28;20085;-60
2022/05/29 00:21:40;;;;;;;7.70;1.30;;;9.90;99.90;;;;;;5055520;28;20082;-60
2022/05/29 00:24:07;;;;;;;6.68;1.20;;;9.90;99.90;;;;;;5064522;28;20100;-59
2022/05/29 00:26:33;;;;;;;4.47;0.90;;;9.90;99.90;;;;;;5067569;28;20033;-59
2022/05/29 00:28:59;;;;;;;4.53;1.27;;;9.90;99.90;;;;;;5065364;28;20031;-58
2022/05/29 00:31:25;;;;;;;4.95;1.33;;;9.90;99.90;;;;;;5061095;28;20029;-54
2022/05/29 00:33:50;;;;;;;6.78;1.20;;;9.90;99.90;;;;;;5065950;28;20502;-60
2022/05/29 00:36:17;;;;;;;12.80;1.40;;;9.70;99.90;;;;;;5066030;28;20050;-60
2022/05/29 00:38:45;;;;;;;5.85;1.38;;;9.70;99.90;;;;;;5068669;28;20025;-59
2022/05/29 00:41:25;;;;;;;10.73;1.48;;;9.70;99.90;;;;;;5069052;28;20056;-61
2022/05/29 00:44:13;;;;;;;1.77;0.98;;;9.70;99.90;;;;;;5068511;28;20082;-55
2022/05/29 00:46:44;;;;;;;4.60;1.30;;;9.70;99.90;;;;;;5064674;28;20036;-60
2022/05/29 00:49:11;;;;;;;5.00;1.17;;;9.70;99.90;;;;;;5063577;28;20033;-60
2022/05/29 00:51:51;;;;;;;4.38;1.30;;;9.70;99.90;;;;;;5067751;28;20112;-58
2022/05/29 00:54:17;;;;;;;6.18;1.55;;;9.60;99.90;;;;;;5064070;28;20402;-59
2022/05/29 00:56:45;;;;;;;3.10;1.15;;;9.60;99.90;;;;;;5067277;28;20024;-57
2022/05/29 00:59:15;;;;;;;4.93;1.08;;;9.60;99.90;;;;;;5068160;28;20030;-59
2022/05/29 01:01:41;;;;;;;4.30;1.52;;;9.60;99.90;;;;;;5063348;28;20066;-60
2022/05/29 01:04:09;;;;;;;5.65;1.15;;;9.50;99.90;;;;;;5062434;28;20086;-61
2022/05/29 01:06:35;;;;;;;10.43;2.15;;;9.50;99.90;;;;;;5044277;28;20025;-59
2022/05/29 01:09:01;;;;;;;5.57;1.40;;;9.50;99.90;;;;;;5065979;28;20075;-58
2022/05/29 01:11:57;;;;;;;8.85;1.42;;;9.50;99.90;;;;;;5067950;28;20048;-59
2022/05/29 01:14:38;;;;;;;4.03;1.00;;;9.50;99.90;;;;;;5019775;28;20039;-55
2022/05/29 01:17:12;;;;;;;7.60;1.38;;;9.50;99.90;;;;;;5067731;28;20028;-60
2022/05/29 01:20:05;;;;;;;4.35;2.35;;;9.40;99.90;;;;;;5067773;28;20029;-59
2022/05/29 01:23:01;;;;;;;5.53;1.35;;;9.40;99.90;;;;;;5062941;28;20028;-59
2022/05/29 01:25:54;;;;;;;6.65;1.33;;;9.40;99.90;;;;;;5063435;28;20055;-60
2022/05/29 01:29:05;;;;;;;6.45;1.38;;;9.30;99.90;;;;;;5068236;28;20112;-61
2022/05/29 01:31:58;;;;;;;3.55;1.63;;;9.30;99.90;;;;;;5052506;28;20160;-60
2022/05/29 01:34:24;;;;;;;3.30;1.17;;;9.40;99.90;;;;;;5066754;28;20085;-59
2022/05/29 01:37:05;;;;;;;3.10;1.10;;;9.40;99.90;;;;;;5070080;28;20112;-55
2022/05/29 01:39:38;;;;;;;4.30;1.42;;;9.40;99.90;;;;;;5071542;28;20103;-59
2022/05/29 01:42:11;;;;;;;13.30;1.23;;;9.40;99.90;;;;;;5071908;28;20395;-60
2022/05/29 01:44:52;;;;;;;2.85;1.23;;;9.40;99.90;;;;;;5070723;28;20013;-60
2022/05/29 01:47:21;;;;;;;5.78;0.98;;;9.40;99.90;;;;;;5066253;28;20559;-59
2022/05/29 01:49:51;;;;;;;7.85;1.33;;;9.20;99.90;;;;;;5065247;28;20017;-58
2022/05/29 01:52:20;;;;;;;7.30;1.27;;;9.20;99.90;;;;;;5070818;28;20032;-57
2022/05/29 01:54:55;;;;;;;5.63;1.35;;;9.30;99.90;;;;;;5068786;28;20469;-59
2022/05/29 01:57:28;;;;;;;5.45;1.25;;;9.30;99.90;;;;;;5067883;28;20017;-58
2022/05/29 02:00:02;;;;;;;5.57;1.40;;;9.30;99.90;;;;;;5071499;28;20078;-61
2022/05/29 02:02:36;;;;;;;3.08;1.30;;;9.20;99.90;;;;;;5069123;28;20052;-61
2022/05/29 02:05:06;;;;;;;5.85;1.20;;;9.20;99.90;;;;;;5067288;28;20454;-55
2022/05/29 02:07:47;;;;;;;4.43;1.30;;;9.30;99.90;;;;;;5067923;28;20041;-60
2022/05/29 02:10:20;;;;;;;7.38;1.38;;;9.30;99.90;;;;;;5064914;28;20112;-57
2022/05/29 02:13:13;;;;;;;7.45;2.25;;;9.30;99.90;;;;;;5044193;28;20108;-58
2022/05/29 02:16:04;;;;;;;2.72;1.30;;;9.30;99.90;;;;;;5069060;28;20028;-60
2022/05/29 02:18:53;;;;;;;2.38;1.15;;;9.30;99.90;;;;;;5068001;28;20501;-60
2022/05/29 02:21:42;;;;;;;3.17;1.20;;;9.30;99.90;;;;;;5064710;28;20032;-58
2022/05/29 02:24:14;;;;;;;12.82;2.08;;;9.10;99.90;;;;;;5028684;28;20044;-61
2022/05/29 02:26:53;;;;;;;2.72;1.58;;;9.10;99.90;;;;;;5068158;28;20040;-60
2022/05/29 02:29:19;;;;;;;7.85;1.40;;;9.00;99.90;;;;;;5065884;28;20029;-57
2022/05/29 02:32:00;;;;;;;3.33;1.23;;;8.90;99.90;;;;;;5068959;28;20017;-59
2022/05/29 02:34:52;;;;;;;2.95;1.25;;;9.00;99.90;;;;;;5063161;28;20044;-56
2022/05/29 02:37:29;;;;;;;3.83;1.23;;;9.00;99.90;;;;;;5061267;28;20040;-57
2022/05/29 02:40:39;;;;;;;5.55;1.23;;;9.10;99.90;;;;;;5065709;28;20025;-61
2022/05/29 02:43:19;;;;;;;4.22;1.30;;;9.00;99.90;;;;;;5048135;28;20033;-60
2022/05/29 02:45:55;;;;;;;3.80;2.00;;;8.80;99.90;;;;;;5066287;28;20036;-60
2022/05/29 02:48:35;;;;;;;3.75;1.60;;;8.80;99.90;;;;;;5068591;28;20025;-61
2022/05/29 02:51:22;;;;;;;5.95;1.20;;;8.80;99.90;;;;;;5067456;28;20051;-57
2022/05/29 02:53:48;;;;;;;8.65;2.15;;;8.80;99.90;;;;;;5066552;28;20025;-59
2022/05/29 02:56:14;;;;;;;5.70;1.50;;;8.80;99.90;;;;;;5065001;28;20078;-60
2022/05/29 02:58:43;;;;;;;4.38;1.58;;;8.80;99.90;;;;;;5069238;28;20035;-60
2022/05/29 03:01:21;;;;;;;3.60;1.48;;;8.80;99.90;;;;;;5066015;28;20041;-58
2022/05/29 03:04:21;;;;;;;8.23;2.10;;;8.90;99.90;;;;;;5064895;28;20029;-59
2022/05/29 03:07:14;;;;;;;5.28;1.73;;;9.00;99.90;;;;;;5067696;28;20025;-55
2022/05/29 03:10:12;;;;;;;2.95;1.30;;;9.00;99.90;;;;;;5057720;28;20032;-57
2022/05/29 03:12:48;;;;;;;4.70;2.30;;;9.00;99.90;;;;;;5056378;28;20506;-58
2022/05/29 03:15:14;;;;;;;4.57;1.48;;;9.10;99.90;;;;;;5069411;28;20028;-59
2022/05/29 03:18:03;;;;;;;8.68;2.35;;;9.10;99.90;;;;;;5064775;28;20505;-60
2022/05/29 03:20:37;;;;;;;7.47;2.17;;;9.20;99.90;;;;;;5064219;28;20028;-59
2022/05/29 03:23:20;;;;;;;3.15;1.75;;;9.20;99.90;;;;;;5070527;28;20032;-57
2022/05/29 03:25:55;;;;;;;6.20;2.47;;;9.20;99.90;;;;;;5059513;28;20064;-59
2022/05/29 03:28:35;;;;;;;3.80;1.27;;;9.20;99.90;;;;;;5064044;28;20078;-59
2022/05/29 03:31:06;;;;;;;4.22;1.60;;;9.20;99.90;;;;;;5070770;28;20036;-60
2022/05/29 03:33:32;;;;;;;4.70;1.70;;;9.30;99.90;;;;;;5064735;28;20073;-56
2022/05/29 03:35:58;;;;;;;1.85;1.20;;;9.30;99.90;;;;;;5084850;22;20060;-61
2022/05/29 03:38:23;;;;;;;9.13;1.95;;;9.30;99.90;;;;;;5046291;28;20082;-62
2022/05/29 03:40:50;;;;;;;3.58;1.60;;;9.30;99.90;;;;;;5052437;28;20060;-62
2022/05/29 03:43:15;;;;;;;4.75;1.60;;;9.30;99.90;;;;;;5049768;28;20076;-61
2022/05/29 03:45:41;;;;;;;2.55;1.38;;;9.30;99.90;;;;;;5051887;28;20497;-60
2022/05/29 03:48:07;;;;;;;3.75;1.58;;;9.30;99.90;;;;;;5050421;28;20036;-60
2022/05/29 03:50:34;;;;;;;7.85;2.15;;;9.20;99.90;;;;;;5047519;28;20033;-61
2022/05/29 03:53:01;;;;;;;7.70;1.60;;;9.20;99.90;;;;;;5048551;28;20440;-63
2022/05/29 03:55:27;;;;;;;6.47;1.55;;;9.30;99.90;;;;;;5052777;28;20096;-62
2022/05/29 03:57:53;;;;;;;4.07;1.27;;;9.30;99.90;;;;;;5048684;28;20237;-61
2022/05/29 04:00:20;;;;;;;3.95;1.30;;;9.30;99.90;;;;;;5046307;28;20029;-62
2022/05/29 04:02:46;;;;;;;7.35;1.75;;;9.30;99.90;;;;;;5048991;28;20067;-62
2022/05/29 04:05:16;;;;;;;4.25;1.60;;;9.30;99.90;;;;;;5049059;28;20056;-60
2022/05/29 04:13:12;;;;;;;17.50;2.78;;;9.40;99.90;;;;;;5068682;28;20456;-62
2022/05/29 04:15:44;;;;;;;9.50;1.83;;;9.50;99.90;;;;;;5056850;28;20036;-63
2022/05/29 04:18:15;;;;;;;7.53;1.70;;;9.50;99.90;;;;;;5043400;28;20048;-62
2022/05/29 04:20:44;;;;;;;4.63;1.48;;;9.50;99.90;;;;;;5046935;28;20035;-62
2022/05/29 04:23:10;;;;;;;12.82;2.10;;;9.60;99.90;;;;;;5042448;28;20021;-62
2022/05/29 04:25:36;;;;;;;5.95;1.80;;;9.50;99.90;;;;;;5041969;28;20044;-62
2022/05/29 04:28:02;;;;;;;8.48;2.17;;;9.50;99.90;;;;;;5049727;28;20432;-62
2022/05/29 04:30:29;;;;;;;12.65;2.63;;;9.60;99.90;;;;;;5047598;28;20028;-62
2022/05/29 04:33:00;;;;;;;9.63;2.58;;;9.60;99.90;;;;;;5048868;28;20029;-62
2022/05/29 04:35:37;;;;;;;6.70;2.47;;;9.60;99.90;;;;;;5048202;28;20032;-62
2022/05/29 04:38:02;;;;;;;10.18;2.60;;;9.60;99.90;;;;;;5045910;28;20041;-62
2022/05/29 04:40:30;;;;;;;3.15;1.92;;;9.80;99.90;;;;;;5043740;28;20116;-62
2022/05/29 04:42:55;;;;;;;6.22;2.60;;;9.80;99.90;;;;;;5060534;28;20028;-61
2022/05/29 04:45:21;;;;;;;9.18;2.63;;;9.80;99.90;;;;;;5050866;28;20069;-62
2022/05/29 04:47:46;;;;;;;6.97;2.30;;;9.90;99.90;;;;;;5067466;28;20386;-63
2022/05/29 04:50:12;;;;;;;7.38;2.38;;;9.90;99.90;;;;;;5050107;28;20021;-62
2022/05/29 04:52:38;;;;;;;7.75;2.65;;;9.90;99.90;;;;;;5045979;28;20150;-60
2022/05/29 04:55:05;;;;;;;10.45;2.95;;;10.00;99.90;;;;;;5049265;28;20033;-62
2022/05/29 04:57:30;;;;;;;8.32;2.40;;;9.90;99.90;;;;;;5063286;28;20486;-61
2022/05/29 04:59:57;;;;;;;8.00;2.58;;;9.90;99.90;;;;;;5049845;28;20025;-63
2022/05/29 05:02:23;;;;;;;7.15;2.67;;;10.00;99.90;;;;;;5036907;28;20036;-59
2022/05/29 05:04:49;;;;;;;7.43;2.55;;;9.90;99.90;;;;;;5065814;28;20521;-61
2022/05/29 05:07:15;;;;;;;6.63;2.90;;;9.80;99.90;;;;;;5055850;28;20037;-58
2022/05/29 05:09:40;;;;;;;12.00;3.08;;;9.80;99.90;;;;;;5047290;28;20029;-60
2022/05/29 05:12:06;;;;;;;5.50;2.50;;;9.80;99.90;;;;;;5050072;28;20461;-62
2022/05/29 05:14:34;;;;;;;12.73;2.58;;;9.80;99.90;;;;;;5050973;28;20033;-62
2022/05/29 05:17:00;;;;;;;8.32;2.80;;;9.80;99.90;;;;;;5050049;28;20108;-60
2022/05/29 05:19:26;;;;;;;7.38;2.40;;;9.90;99.90;;;;;;5052272;28;20417;-61
2022/05/29 05:21:51;;;;;;;11.63;2.92;;;9.80;99.90;;;;;;5051752;28;20024;-59
2022/05/29 05:24:17;;;;;;;4.38;2.40;;;9.90;99.90;;;;;;5054517;28;20013;-61
2022/05/29 05:26:43;;;;;;;6.00;2.95;;;9.90;99.90;;;;;;5051012;28;20025;-60
2022/05/29 05:29:08;;;;;;;6.57;2.30;;;10.00;99.90;;;;;;5052125;28;20349;-59
2022/05/29 05:31:34;;;;;;;3.40;2.15;;;10.10;99.90;;;;;;5054123;28;20131;-61
2022/05/29 05:34:00;;;;;;;6.90;2.97;;;10.10;99.90;;;;;;5055301;28;20021;-60
2022/05/29 05:36:26;;;;;;;13.60;3.13;;;10.20;99.90;;;;;;5061262;28;20102;-60
2022/05/29 05:38:53;;;;;;;9.88;2.65;;;10.30;99.90;;;;;;5054192;28;20040;-61
2022/05/29 05:41:19;;;;;;;7.13;2.92;;;10.20;99.90;;;;;;5051824;28;20021;-61
2022/05/29 05:43:44;;;;;;;6.28;2.80;;;10.20;99.90;;;;;;5051506;28;20041;-61
2022/05/29 05:46:13;;;;;;;5.47;2.72;;;10.20;99.90;;;;;;5051097;28;20036;-61
2022/05/29 05:48:40;;;;;;;8.10;2.38;;;10.30;99.90;;;;;;5050840;28;20136;-61
2022/05/29 05:51:09;;;;;;;13.05;3.22;;;10.40;99.90;;;;;;5050924;28;20075;-60
2022/05/29 05:53:35;;;;;;;6.97;2.45;;;10.50;99.90;;;;;;5055370;28;20482;-61
2022/05/29 05:56:06;;;;;;;10.98;2.75;;;10.50;99.90;;;;;;5058004;28;20139;-59
2022/05/29 05:58:31;;;;;;;8.23;2.97;;;10.60;99.90;;;;;;5050846;28;20025;-61
2022/05/29 06:00:57;;;;;;;11.35;3.10;;;10.60;99.90;;;;;;5052331;28;20043;-61
2022/05/29 06:03:22;;;;;;;20.17;3.33;;;10.60;99.90;;;;;;5055306;28;20033;-61
2022/05/29 06:05:48;;;;;;;11.50;3.08;;;10.60;99.90;;;;;;5053118;28;20032;-60
2022/05/29 06:08:14;;;;;;;5.60;2.63;;;10.60;99.90;;;;;;5045221;28;20036;-61
2022/05/29 06:10:40;;;;;;;12.82;2.88;;;10.80;99.90;;;;;;5051912;28;20021;-61
2022/05/29 06:13:06;;;;;;;6.85;2.25;;;10.90;99.90;;;;;;5051071;28;20090;-61
2022/05/29 06:15:32;;;;;;;7.35;2.15;;;11.10;99.90;;;;;;5048071;28;20033;-61
2022/05/29 06:17:58;;;;;;;12.82;2.72;;;11.10;99.90;;;;;;5049532;28;20394;-59
2022/05/29 06:20:24;;;;;;;4.93;2.10;;;11.30;99.90;;;;;;5060692;28;20032;-59
2022/05/29 06:22:50;;;;;;;8.65;2.17;;;11.30;99.90;;;;;;5052592;28;20021;-59
2022/05/29 06:25:16;;;;;;;6.43;2.75;;;11.30;99.90;;;;;;5063474;28;20039;-61
2022/05/29 06:27:44;;;;;;;8.63;2.40;;;11.30;99.90;;;;;;5063497;28;20036;-61
2022/05/29 06:30:13;;;;;;;11.95;3.20;;;11.20;99.90;;;;;;5052579;28;20044;-60
2022/05/29 06:32:39;;;;;;;11.13;3.17;;;11.20;99.90;;;;;;5060679;28;20143;-61
2022/05/29 06:35:06;;;;;;;6.82;2.20;;;11.30;99.90;;;;;;5067028;28;20029;-62
2022/05/29 06:37:32;;;;;;;9.32;2.05;;;11.40;99.90;;;;;;5051189;28;20454;-62
2022/05/29 06:39:58;;;;;;;9.30;2.33;;;11.60;99.90;;;;;;5050666;28;20036;-62
2022/05/29 06:42:24;;;;;;;4.88;2.33;;;11.70;99.90;;;;;;5051365;28;20029;-62
2022/05/29 06:44:50;;;;;;;9.02;1.67;;;11.80;99.90;;;;;;5050846;28;20029;-61
2022/05/29 06:47:15;;;;;;;5.35;1.80;;;11.80;99.90;;;;;;5051855;28;20037;-62
2022/05/29 06:49:41;;;;;;;7.88;2.13;;;11.70;99.90;;;;;;5050418;28;20025;-60
2022/05/29 06:52:11;;;;;;;5.53;1.58;;;11.80;99.90;;;;;;5050536;28;20016;-61
2022/05/29 06:54:38;;;;;;;4.30;1.63;;;11.90;99.90;;;;;;5051061;28;20023;-62
2022/05/29 06:57:06;;;;;;;7.55;1.77;;;11.90;99.90;;;;;;5057326;28;20028;-63
2022/05/29 07:08:01;;;;;;;3.35;1.75;;;12.00;99.90;;;;;;5021955;28;20052;-60
2022/05/29 07:10:29;;;;;;;5.15;1.05;;;12.10;99.90;;;;;;5047966;28;20507;-58
2022/05/29 07:12:56;;;;;;;3.45;1.17;;;12.10;99.90;;;;;;5047451;28;20147;-61
2022/05/29 07:15:22;;;;;;;10.82;1.60;;;12.10;99.90;;;;;;5047433;28;20027;-60
2022/05/29 07:17:48;;;;;;;3.28;1.73;;;12.10;99.90;;;;;;5046760;28;20049;-60
2022/05/29 07:20:15;;;;;;;6.25;1.40;;;11.90;99.90;;;;;;5048460;28;20107;-59
2022/05/29 07:22:43;;;;;;;5.65;2.00;;;11.90;99.90;;;;;;5048857;28;20763;-58
2022/05/29 07:25:11;;;;;;;9.98;2.58;;;12.00;99.90;;;;;;5059189;28;20032;-59
2022/05/29 07:27:37;;;;;;;5.10;2.30;;;12.20;99.90;;;;;;5060964;28;20550;-60
2022/05/29 07:30:04;;;;;;;2.20;1.27;;;12.10;99.90;;;;;;5049247;28;20775;-58
2022/05/29 07:32:30;;;;;;;6.25;1.80;;;12.10;99.90;;;;;;5045626;28;20029;-62
2022/05/29 07:34:57;;;;;;;4.55;1.63;;;12.00;99.90;;;;;;5059009;28;20033;-61
2022/05/29 07:37:23;;;;;;;6.00;1.75;;;11.90;99.90;;;;;;5046117;28;20040;-57
2022/05/29 07:39:51;;;;;;;5.97;2.13;;;11.90;99.90;;;;;;5054266;28;20036;-62
2022/05/29 07:45:01;;;;;;;7.28;2.08;;;12.00;99.90;;;;;;5046902;28;20375;-59
2022/05/29 07:47:28;;;;;;;5.90;2.55;;;12.00;99.90;;;;;;5059594;28;20037;-61
2022/05/29 07:49:56;;;;;;;7.85;1.77;;;12.00;99.90;;;;;;5039365;28;20032;-60
2022/05/29 07:52:21;;;;;;;5.50;2.33;;;12.00;99.90;;;;;;5045974;28;20511;-62
2022/05/29 07:54:47;;;;;;;3.92;2.17;;;12.00;99.90;;;;;;5047446;28;20040;-61
2022/05/29 07:57:13;;;;;;;6.60;2.47;;;11.80;99.90;;;;;;5050983;28;20029;-60
2022/05/29 07:59:38;;;;;;;6.05;3.28;;;11.80;99.90;;;;;;5064975;28;20028;-61
2022/05/29 08:02:04;;;;;;;9.82;2.92;;;11.80;99.90;;;;;;5046323;28;20037;-60
2022/05/29 08:04:29;;;;;;;8.13;3.25;;;11.80;99.90;;;;;;5046623;28;20029;-60
2022/05/29 08:06:56;;;;;;;7.07;4.13;;;11.70;99.90;;;;;;5045466;28;20033;-61
2022/05/29 08:09:21;;;;;;;9.48;4.55;;;11.70;99.90;;;;;;5045799;28;20036;-57
2022/05/29 08:11:47;;;;;;;13.20;4.05;;;11.80;99.90;;;;;;5046715;28;20025;-58
2022/05/29 08:14:13;;;;;;;7.25;3.70;;;11.70;99.90;;;;;;5047055;28;20021;-60
2022/05/29 08:16:39;;;;;;;10.32;3.38;;;11.70;99.90;;;;;;5045896;28;20049;-59
2022/05/29 08:19:07;;;;;;;6.13;3.05;;;11.70;99.90;;;;;;5054598;28;20394;-59
2022/05/29 08:21:33;;;;;;;6.35;3.70;;;11.80;99.90;;;;;;5065552;28;20565;-61
2022/05/29 08:32:12;;;;;;;5.22;2.65;;;12.00;99.90;;;;;;5048018;28;20040;-61
2022/05/29 08:34:37;;;;;;;5.63;2.88;;;12.10;99.90;;;;;;5047317;28;20025;-60
2022/05/29 08:37:04;;;;;;;2.75;2.13;;;12.10;99.90;;;;;;5049645;28;20029;-63
2022/05/29 08:39:29;;;;;;;6.22;2.30;;;12.10;99.90;;;;;;5048362;28;20113;-62
2022/05/29 08:41:57;;;;;;;5.63;1.80;;;12.20;99.90;;;;;;5063368;28;20108;-61
2022/05/29 08:44:37;;;;;;;4.38;1.80;;;12.10;99.90;;;;;;5051527;28;20056;-60
2022/05/29 08:47:04;;;;;;;8.88;1.77;;;12.30;99.90;;;;;;5046445;28;20032;-61
2022/05/29 08:49:42;;;;;;;4.25;1.60;;;12.20;99.90;;;;;;5050581;28;20028;-60
2022/05/29 08:52:08;;;;;;;3.50;2.33;;;12.30;99.90;;;;;;5058971;28;20017;-61
2022/05/29 08:54:51;;;;;;;2.90;1.25;;;12.50;99.90;;;;;;5051838;28;20142;-60
2022/05/29 08:57:25;;;;;;;4.78;2.13;;;12.60;99.90;;;;;;5049774;28;20108;-61
2022/05/29 08:59:58;;;;;;;;;;;12.90;99.90;;;;;;5056964;28;20012;-58
2022/05/29 09:03:03;;;;;;;5.07;1.80;;;13.10;99.90;;;;;;5060038;28;19936;-60
2022/05/29 09:05:52;;;;;;;2.97;1.92;;;13.20;99.90;;;;;;5061586;28;20068;-60
2022/05/29 09:08:33;;;;;;;1.83;1.45;;;13.00;99.90;;;;;;5071659;28;20020;-60
2022/05/29 09:11:05;;;;;;;2.95;1.17;;;13.00;99.90;;;;;;5051220;28;20040;-60
2022/05/29 09:13:37;;;;;;;6.47;1.63;;;13.40;99.90;;;;;;5046723;28;20021;-58
2022/05/29 09:16:12;;;;;;;4.13;1.13;;;13.70;99.90;;;;;;5047837;28;20047;-60
2022/05/29 09:18:41;;;;;;;3.42;1.20;;;13.80;99.90;;;;;;5048460;28;20060;-59
2022/05/29 09:21:20;;;;;;;3.03;1.25;;;13.90;99.90;;;;;;5046340;28;20025;-61
2022/05/29 09:24:05;;;;;;;4.20;1.27;;;13.60;99.90;;;;;;5044276;28;20467;-61
2022/05/29 09:26:36;;;;;;;2.38;1.17;;;13.50;99.90;;;;;;5051169;28;20032;-61
2022/05/29 09:29:04;;;;;;;4.40;1.65;;;13.40;99.90;;;;;;5050306;28;20491;-58
2022/05/29 09:31:31;;;;;;;2.35;1.30;;;13.30;99.90;;;;;;5050516;28;20029;-58
2022/05/29 09:33:57;;;;;;;2.78;1.42;;;13.20;99.90;;;;;;5053430;28;20037;-59
2022/05/29 09:36:42;;;;;;;3.13;1.50;;;13.20;99.90;;;;;;5045972;28;20025;-59
2022/05/29 09:39:27;;;;;;;4.72;2.00;;;13.30;99.90;;;;;;5068620;22;20041;-59
2022/05/29 09:42:19;;;;;;;3.70;2.20;;;13.30;99.90;;;;;;5066641;28;20024;-58
2022/05/29 09:45:11;;;;;;;4.20;1.73;;;13.50;99.90;;;;;;5070978;28;20827;-57
2022/05/29 09:50:36;;;;;;;4.03;2.33;;;13.80;99.90;;;;;;5072460;28;20039;-59
2022/05/29 09:53:02;;;;;;;2.28;1.63;;;13.70;99.90;;;;;;5071328;28;20027;-58
2022/05/29 09:55:32;;;;;;;2.60;2.00;;;13.80;99.90;;;;;;5078274;28;20111;-58
2022/05/29 09:58:10;;;;;;;3.20;1.67;;;13.80;99.90;;;;;;5070717;28;20032;-57
2022/05/29 10:00:51;;;;;;;8.68;1.83;;;13.90;99.90;;;;;;5078313;28;20097;-60
2022/05/29 10:03:43;;;;;;;2.80;1.83;;;14.00;99.90;;;;;;5076971;28;20025;-60
2022/05/29 10:06:23;;;;;;;5.85;1.98;;;14.20;99.90;;;;;;5071803;28;20064;-61
2022/05/29 10:08:51;;;;;;;5.80;2.05;;;14.20;99.90;;;;;;5079296;28;20507;-62
2022/05/29 10:11:19;;;;;;;2.50;2.10;;;14.40;99.90;;;;;;5076656;28;20153;-60
2022/05/29 10:13:45;;;;;;;5.75;2.60;;;14.60;99.90;;;;;;5085361;28;20499;-59
2022/05/29 10:16:13;;;;;;;5.57;1.83;;;14.70;99.90;;;;;;5075743;28;20039;-60
2022/05/29 10:18:40;;;;;;;7.95;2.10;;;14.60;99.90;;;;;;5079060;28;20085;-60
2022/05/29 10:21:23;;;;;;;12.38;2.40;;;14.40;99.90;;;;;;5082344;28;20028;-62
2022/05/29 10:23:58;;;;;;;4.75;2.22;;;14.50;99.90;;;;;;5075359;28;20181;-61
2022/05/29 10:26:33;;;;;;;4.80;2.83;;;14.40;99.90;;;;;;5073511;28;20028;-60
2022/05/29 10:29:01;;;;;;;5.70;1.88;;;14.10;99.90;;;;;;5071009;28;20028;-61
2022/05/29 10:31:34;;;;;;;7.47;1.90;;;13.90;99.90;;;;;;5069261;28;20021;-60
2022/05/29 10:34:09;;;;;;;6.13;1.67;;;13.90;99.90;;;;;;5064341;28;20906;-56
2022/05/29 10:36:37;;;;;;;9.68;1.85;;;13.80;99.90;;;;;;5069617;28;20025;-62
2022/05/29 10:39:09;;;;;;;6.13;1.60;;;13.50;99.90;;;;;;5069288;28;20494;-61
2022/05/29 10:41:38;;;;;;;1.98;1.00;;;13.10;99.90;;;;;;5069741;28;20036;-61
2022/05/29 10:44:03;;;;;;;6.80;1.42;;;12.80;99.90;;;;;;5070687;28;20035;-61
2022/05/29 10:47:02;;;;;;;4.13;1.38;;;12.70;99.90;;;;;;5074938;28;20107;-61
2022/05/29 10:49:34;;;;;;;5.07;1.30;;;12.80;99.90;;;;;;5070976;28;20115;-61
2022/05/29 10:52:37;;;;;;;1.77;0.90;;;12.70;99.90;;;;;;5068742;28;20024;-61
2022/05/29 10:55:18;;;;;;;4.03;1.00;;;12.70;99.90;;;;;;5072069;28;20024;-60
2022/05/29 10:58:10;;;;;;;5.35;1.20;;;12.70;99.90;;;;;;5063494;28;20033;-61
2022/05/29 11:01:03;;;;;;;3.65;1.02;;;12.80;99.90;;;;;;5068714;28;20418;-61
2022/05/29 11:03:56;;;;;;;2.95;0.70;;;13.30;99.90;;;;;;5070281;28;20032;-61
2022/05/29 11:06:54;;;;;;;2.40;1.23;;;14.10;99.90;;;;;;5065805;28;20174;-62
2022/05/29 11:09:56;;;;;;;2.03;0.73;;;14.80;99.90;;;;;;5005177;28;20067;-61
2022/05/29 11:12:39;;;;;;;1.20;0.88;;;14.90;99.90;;;;;;5070130;28;20047;-59
2022/05/29 11:15:21;;;;;;;2.00;1.08;;;14.70;99.90;;;;;;5064731;28;21018;-61
2022/05/29 11:18:13;;;;;;;3.38;1.48;;;14.70;99.90;;;;;;5051854;28;20486;-61
2022/05/29 11:21:02;;;;;;;0.70;0.70;;;14.60;99.90;;;;;;5064538;28;20016;-60
2022/05/29 11:24:12;;;;;;;2.00;1.10;;;14.70;99.90;;;;;;5063189;28;20028;-61
2022/05/29 11:26:57;;;;;;;1.80;0.80;;;14.80;99.90;;;;;;5067420;28;20108;-60
2022/05/29 11:29:54;;;;;;;4.20;1.20;;;14.80;99.90;;;;;;5050039;28;20055;-60
2022/05/29 11:32:52;;;;;;;4.40;1.20;;;14.80;99.90;;;;;;5063838;28;20016;-60
2022/05/29 11:35:42;;;;;;;2.22;1.15;;;14.50;99.90;;;;;;5069696;28;20039;-59
2022/05/29 11:38:22;;;;;;;5.85;1.75;;;14.30;99.90;;;;;;5071556;28;20104;-61
2022/05/29 11:41:00;;;;;;;5.40;1.65;;;14.10;99.90;;;;;;5054227;28;20109;-61
2022/05/29 11:43:28;;;;;;;9.30;1.70;;;13.90;99.90;;;;;;5069881;28;20616;-62
2022/05/29 11:52:06;;;;;;;2.40;1.63;;;14.10;99.90;;;;;;5067533;28;20047;-57
2022/05/29 11:54:39;;;;;;;7.97;1.67;;;14.40;99.90;;;;;;5068826;28;20103;-60
2022/05/29 11:57:09;;;;;;;2.55;1.35;;;15.00;99.90;;;;;;5067133;28;20051;-63
2022/05/29 11:59:54;;;;;;;3.60;0.93;;;15.50;99.90;;;;;;5065517;28;20038;-62
2022/05/29 12:02:29;;;;;;;5.38;1.10;;;15.50;99.90;;;;;;5068657;28;20249;-61
2022/05/29 12:04:58;;;;;;;1.20;0.73;;;15.50;99.90;;;;;;5064735;28;20040;-56
2022/05/29 12:07:40;;;;;;;4.78;1.00;;;15.60;99.90;;;;;;5063806;28;20020;-60
2022/05/29 12:10:28;;;;;;;3.58;1.13;;;15.40;99.90;;;;;;5065262;28;20028;-60
2022/05/29 12:13:03;;;;;;;1.88;1.00;;;14.90;99.90;;;;;;5069027;28;20116;-61
2022/05/29 12:15:30;;;;;;;1.77;0.70;;;14.40;99.90;;;;;;5073373;28;20063;-61
2022/05/29 12:18:19;;;;;;;1.17;0.60;;;14.10;99.90;;;;;;5076824;28;20140;-61
2022/05/29 12:20:52;;;;;;;3.15;0.80;;;13.40;99.90;;;;;;5063209;28;20103;-60
2022/05/29 12:23:30;;;;;;;1.23;1.05;;;13.00;99.90;;;;;;5071315;28;20804;-61
2022/05/29 12:26:16;;;;;;;2.17;1.00;;;12.40;99.90;;;;;;5069429;28;20074;-61
2022/05/29 12:28:53;;;;;;;4.50;0.80;;;12.30;99.90;;;;;;5066625;28;20043;-61
2022/05/29 12:31:28;;;;;;;4.07;0.80;;;12.30;99.90;;;;;;5063245;28;20058;-53
2022/05/29 12:33:54;;;;;;;;;;;12.40;99.90;;;;;;5060017;28;20029;-61
2022/05/29 12:36:50;;;;;;;0.50;0.50;;;12.40;99.90;;;;;;5064863;28;19923;-61
2022/05/29 12:39:38;;;;;;;1.80;0.50;;;12.40;99.90;;;;;;5068653;28;20033;-59
2022/05/29 12:42:22;;;;;;;1.25;0.60;;;12.40;99.90;;;;;;5067063;28;20041;-61
2022/05/29 12:45:12;;;;;;;1.33;0.50;;;12.40;99.90;;;;;;5070328;28;20039;-61
2022/05/29 12:47:52;;;;;;;0.45;0.45;;;12.50;99.90;;;;;;5065473;28;20550;-62
2022/05/29 12:50:55;;;;;;;0.60;0.60;;;12.60;99.90;;;;;;5066951;28;20035;-63
2022/05/29 12:53:21;;;;;;;1.45;1.00;;;13.20;99.90;;;;;;5069472;28;20025;-61
2022/05/29 12:55:52;;;;;;;3.22;1.10;;;13.90;99.90;;;;;;5049208;28;20406;-61
2022/05/29 12:58:43;;;;;;;2.78;1.85;;;14.10;99.90;;;;;;5056666;28;20075;-58
2022/05/29 13:01:35;;;;;;;4.60;1.50;;;14.50;99.90;;;;;;5074342;28;20021;-61
2022/05/29 13:04:10;;;;;;;4.15;1.58;;;14.90;99.90;;;;;;5037708;28;20037;-60
2022/05/29 13:06:54;;;;;;;4.72;1.52;;;15.10;99.90;;;;;;5068053;28;20169;-61
2022/05/29 13:09:27;;;;;;;2.42;1.58;;;14.70;99.90;;;;;;5081891;28;20115;-60
2022/05/29 13:12:01;;;;;;;2.78;1.50;;;15.20;99.90;;;;;;5073335;28;20029;-59
2022/05/29 13:14:29;;;;;;;8.02;1.70;;;15.80;99.90;;;;;;5071934;28;20024;-61
2022/05/29 13:17:20;;;;;;;2.33;1.55;;;16.50;99.90;;;;;;5068338;28;20487;-60
2022/05/29 13:19:56;;;;;;;2.10;1.23;;;16.60;99.90;;;;;;5060968;28;20028;-61
2022/05/29 13:22:41;;;;;;;6.13;1.75;;;15.80;99.90;;;;;;5068755;28;20028;-57
2022/05/29 13:25:07;;;;;;;3.22;1.27;;;15.30;99.90;;;;;;5063229;28;20035;-60
2022/05/29 13:27:33;;;;;;;1.33;1.10;;;15.30;99.90;;;;;;5064395;28;20131;-59
2022/05/29 13:30:02;;;;;;;1.77;1.13;;;15.10;99.90;;;;;;5059704;28;20159;-60
2022/05/29 13:32:30;;;;;;;4.43;1.45;;;15.00;99.90;;;;;;5068444;28;20475;-61
2022/05/29 13:35:28;;;;;;;3.28;1.20;;;14.70;99.90;;;;;;5072753;28;20033;-61
2022/05/29 13:37:53;;;;;;;1.92;1.58;;;14.50;99.90;;;;;;5067039;28;20395;-60
2022/05/29 13:40:19;;;;;;;7.20;2.17;;;14.40;99.90;;;;;;5070929;28;20036;-60
2022/05/29 13:42:50;;;;;;;2.83;1.70;;;14.10;99.90;;;;;;5056948;28;20033;-61
2022/05/29 13:45:19;;;;;;;3.55;2.10;;;14.20;99.90;;;;;;5070610;28;20052;-61
2022/05/29 13:47:52;;;;;;;4.53;1.65;;;14.90;99.90;;;;;;5073418;28;20047;-60
2022/05/29 13:50:25;;;;;;;2.13;1.60;;;15.80;99.90;;;;;;5066406;28;20036;-61
2022/05/29 13:52:58;;;;;;;3.50;1.65;;;16.50;99.90;;;;;;5072667;28;20025;-61
2022/05/29 13:55:35;;;;;;;5.78;1.50;;;16.90;99.90;;;;;;5069986;28;20036;-60
2022/05/29 14:04:06;;;;;;;2.38;1.08;;;16.00;99.90;;;;;;5068180;28;20051;-60